Terminal Aerodrome Forecast
Issued by NWS Shreveport, LA

Home | Current Version | Previous Version | Text Only | Print | Product List | Glossary On
Versions: 1 2 3 4 5 6 7 8 9 10 11 12 13 14 15 16 17 18
494
FTUS44 KSHV 240014 AAA
TAFGGG
TAF AMD
KGGG 240014Z 2400/2424 18012KT P6SM SKC
     FM240900 21012G18KT P6SM BKN025
     FM241400 25012KT P6SM BKN015
      TEMPO 2416/2419 30012G20KT SCT015
     FM241900 30013G20KT P6SM SKC=

USA.gov is the U.S. government's official web portal to all federal, state and local government web resources and services.